Time;durP1;ratioP1;P1;durP2;ratioP2;P2;SDS_P1;SDS_P2;PMS_P1;PMS_P2;Temp;Humidity;BMP_temperature;BMP_pressure;BME280_temperature;BME280_humidity;BME280_pressure;Samples;Min_cycle;Max_cycle;Signal;HPM_P1;HPM_P2
2022/01/30 00:01:19;;;;;;;1.73;1.63;;;;;7.40;96642.00;;;;8313295;28;20249;-72
2022/01/30 00:05:22;;;;;;;1.73;1.63;;;;;7.30;96627.00;;;;8311955;28;20257;-72
2022/01/30 00:09:25;;;;;;;1.83;1.73;;;;;7.30;96630.00;;;;8312326;28;20230;-72
2022/01/30 00:13:29;;;;;;;1.70;1.60;;;;;7.30;96629.00;;;;8308108;28;20229;-72
2022/01/30 00:17:38;;;;;;;1.53;1.43;;;;;7.30;96616.00;;;;8313299;28;20217;-72
2022/01/30 00:21:46;;;;;;;2.03;1.83;;;;;7.30;96625.00;;;;8312049;28;20233;-72
2022/01/30 00:25:51;;;;;;;1.77;1.63;;;;;7.30;96648.00;;;;8308610;28;20591;-72
2022/01/30 00:29:56;;;;;;;2.40;2.20;;;;;7.20;96624.00;;;;8312909;28;20687;-72
2022/01/30 00:33:59;;;;;;;2.77;2.57;;;;;7.20;96632.00;;;;8318998;28;20294;-72
2022/01/30 00:38:02;;;;;;;2.90;2.30;;;;;7.20;96625.00;;;;8314390;28;20241;-72
2022/01/30 00:42:10;;;;;;;2.40;2.20;;;;;7.20;96629.00;;;;8319591;28;20237;-73
2022/01/30 00:46:15;;;;;;;2.30;2.20;;;;;7.30;96621.00;;;;8320217;28;20218;-72
2022/01/30 00:50:18;;;;;;;2.70;2.50;;;;;7.20;96615.00;;;;8313796;28;20225;-72
2022/01/30 00:54:21;;;;;;;1.97;1.87;;;;;7.20;96627.00;;;;8318026;28;20240;-73
2022/01/30 00:58:24;;;;;;;3.40;2.30;;;;;7.20;96638.00;;;;8300775;28;20226;-73
2022/01/30 01:02:28;;;;;;;2.10;1.90;;;;;7.20;96606.00;;;;8318458;28;20236;-74
2022/01/30 01:06:31;;;;;;;4.53;2.37;;;;;7.20;96632.00;;;;8306916;28;20228;-72
2022/01/30 01:10:39;;;;;;;2.43;2.23;;;;;7.20;96620.00;;;;8313763;28;20225;-72
2022/01/30 01:23:29;;;;;;;2.10;1.80;;;;;7.30;96636.00;;;;8317593;28;20258;-73
2022/01/30 01:27:33;;;;;;;1.20;1.20;;;;;7.30;96615.00;;;;8317920;28;20221;-72
2022/01/30 01:31:36;;;;;;;1.77;1.67;;;;;7.40;96640.00;;;;8307159;28;20269;-72
2022/01/30 01:35:41;;;;;;;1.80;1.40;;;;;7.40;96644.00;;;;8317149;28;20657;-72
2022/01/30 01:39:43;;;;;;;1.37;1.27;;;;;7.40;96643.00;;;;8315917;28;20291;-72
2022/01/30 01:43:48;;;;;;;1.20;1.20;;;;;7.40;96616.00;;;;8305101;28;20819;-71
2022/01/30 01:47:51;;;;;;;1.57;1.50;;;;;7.30;96622.00;;;;8317253;28;20248;-72
2022/01/30 01:52:18;;;;;;;1.40;1.30;;;;;7.20;96627.00;;;;8306703;28;20291;-72
2022/01/30 01:56:22;;;;;;;2.03;1.40;;;;;7.20;96624.00;;;;8299785;28;20236;-72
2022/01/30 02:00:25;;;;;;;1.83;1.27;;;;;7.10;96624.00;;;;8302926;28;20228;-72
2022/01/30 02:04:29;;;;;;;2.70;1.67;;;;;7.10;96643.00;;;;8313791;28;20304;-72
2022/01/30 02:08:37;;;;;;;2.40;1.60;;;;;7.10;96631.00;;;;8313239;28;20244;-71
2022/01/30 02:12:47;;;;;;;4.50;1.63;;;;;7.10;96626.00;;;;8311794;28;20807;-72
2022/01/30 02:25:39;;;;;;;6.50;1.87;;;;;7.10;96631.00;;;;8312693;28;20229;-73
2022/01/30 02:29:42;;;;;;;7.30;2.20;;;;;7.10;96632.00;;;;8311904;28;20276;-71
2022/01/30 02:33:45;;;;;;;3.90;1.73;;;;;7.10;96607.00;;;;8313751;28;20256;-71
2022/01/30 02:37:51;;;;;;;3.30;1.90;;;;;7.10;96613.00;;;;8306570;28;20229;-70
2022/01/30 02:41:56;;;;;;;2.87;1.83;;;;;7.10;96615.00;;;;8321968;28;20241;-71
2022/01/30 02:46:06;;;;;;;8.13;2.20;;;;;7.10;96595.00;;;;8310627;28;20225;-71
2022/01/30 02:50:19;;;;;;;8.07;2.60;;;;;7.00;96637.00;;;;8312482;28;20295;-71
2022/01/30 02:54:23;;;;;;;11.13;2.47;;;;;7.10;96629.00;;;;8309927;28;20245;-71
2022/01/30 02:58:27;;;;;;;4.97;2.33;;;;;7.10;96633.00;;;;8313650;28;20646;-70
2022/01/30 03:02:30;;;;;;;6.07;2.60;;;;;7.10;96622.00;;;;8326339;23;20237;-71
2022/01/30 03:06:33;;;;;;;3.30;1.90;;;;;7.10;96630.00;;;;8310420;28;20331;-69
2022/01/30 03:10:36;;;;;;;6.23;1.93;;;;;7.00;96618.00;;;;8321417;28;20264;-72
2022/01/30 03:14:42;;;;;;;9.70;2.60;;;;;7.00;96637.00;;;;8315229;28;20690;-71
2022/01/30 03:18:45;;;;;;;10.27;2.50;;;;;7.00;96630.00;;;;8311205;28;20276;-71
2022/01/30 03:22:48;;;;;;;9.23;2.60;;;;;7.00;96626.00;;;;8316017;28;20236;-71
2022/01/30 03:26:51;;;;;;;12.53;3.17;;;;;7.00;96626.00;;;;8312432;28;20229;-71
2022/01/30 03:31:00;;;;;;;6.07;2.47;;;;;7.10;96643.00;;;;8316012;28;20260;-71
2022/01/30 03:35:03;;;;;;;13.43;3.17;;;;;7.10;96637.00;;;;8287760;28;20225;-71
2022/01/30 03:39:06;;;;;;;7.80;2.63;;;;;7.10;96641.00;;;;8316140;28;20743;-71
2022/01/30 03:43:09;;;;;;;7.43;2.73;;;;;7.10;96635.00;;;;8331604;28;20233;-71
2022/01/30 03:47:13;;;;;;;5.33;2.27;;;;;7.10;96632.00;;;;8313585;28;20299;-71
2022/01/30 03:51:16;;;;;;;9.87;2.57;;;;;7.10;96613.00;;;;8312969;28;20255;-72
2022/01/30 03:55:20;;;;;;;8.23;2.53;;;;;7.10;96642.00;;;;8312708;28;20638;-72
2022/01/30 03:59:23;;;;;;;12.10;2.90;;;;;7.20;96643.00;;;;8313987;28;20330;-71
2022/01/30 04:03:28;;;;;;;7.67;2.80;;;;;7.20;96684.00;;;;8316563;28;20234;-71
2022/01/30 04:07:32;;;;;;;8.33;2.37;;;;;7.20;96681.00;;;;8317980;28;20690;-71
2022/01/30 04:11:35;;;;;;;11.27;2.70;;;;;7.20;96682.00;;;;8313026;28;20225;-71
2022/01/30 04:15:39;;;;;;;5.63;2.07;;;;;7.10;96701.00;;;;8323797;28;20307;-71
2022/01/30 04:19:43;;;;;;;10.80;3.30;;;;;7.10;96693.00;;;;8319864;28;20228;-70
2022/01/30 04:23:46;;;;;;;7.50;2.60;;;;;7.10;96701.00;;;;8323993;28;20271;-72
2022/01/30 04:27:50;;;;;;;10.83;2.87;;;;;7.10;96680.00;;;;8316339;28;20233;-73
2022/01/30 04:31:53;;;;;;;5.87;2.33;;;;;7.20;96692.00;;;;8315508;28;20225;-74
2022/01/30 04:36:04;;;;;;;5.97;2.60;;;;;7.10;96682.00;;;;8319535;28;20268;-70
2022/01/30 04:40:38;;;;;;;6.17;2.40;;;;;7.10;96680.00;;;;8325115;28;20224;-73
2022/01/30 04:53:37;;;;;;;8.23;2.57;;;;;7.00;96660.00;;;;8317204;28;20268;-70
2022/01/30 04:57:57;;;;;;;5.53;2.10;;;;;6.90;96677.00;;;;8322890;28;20287;-68
2022/01/30 05:02:06;;;;;;;7.17;1.90;;;;;6.90;96661.00;;;;8309342;28;20229;-71
2022/01/30 05:06:13;;;;;;;12.73;3.23;;;;;6.90;96670.00;;;;8317189;28;20616;-70
2022/01/30 05:10:17;;;;;;;12.50;2.37;;;;;6.80;96662.00;;;;8319980;28;20290;-70
2022/01/30 05:14:23;;;;;;;6.93;2.40;;;;;6.80;96659.00;;;;8319382;28;20740;-74
2022/01/30 05:18:30;;;;;;;5.83;2.30;;;;;6.70;96656.00;;;;8318631;28;20229;-70
2022/01/30 05:22:34;;;;;;;8.83;2.57;;;;;6.60;96673.00;;;;8320296;28;20287;-72
2022/01/30 05:26:44;;;;;;;9.17;2.93;;;;;6.40;96658.00;;;;8327473;28;20244;-73
2022/01/30 05:30:50;;;;;;;14.00;2.70;;;;;6.40;96689.00;;;;8322447;28;20271;-72
2022/01/30 05:34:54;;;;;;;8.33;2.73;;;;;6.40;96699.00;;;;8323092;28;20618;-74
2022/01/30 05:38:59;;;;;;;8.93;2.43;;;;;6.40;96704.00;;;;8318695;28;20225;-73
2022/01/30 05:43:05;;;;;;;16.90;3.33;;;;;6.40;96707.00;;;;8316972;28;20323;-72
2022/01/30 05:47:11;;;;;;;8.80;2.30;;;;;6.50;96713.00;;;;8337511;28;20224;-70
2022/01/30 05:51:14;;;;;;;8.30;2.23;;;;;6.50;96725.00;;;;8325001;28;20225;-70
2022/01/30 05:55:17;;;;;;;5.43;1.97;;;;;6.60;96721.00;;;;8316668;28;20225;-71
2022/01/30 05:59:21;;;;;;;12.10;2.60;;;;;6.60;96724.00;;;;8315529;28;20240;-71
2022/01/30 06:03:26;;;;;;;9.63;2.23;;;;;6.60;96726.00;;;;8307965;28;20228;-72
2022/01/30 06:07:31;;;;;;;9.80;2.03;;;;;6.60;96720.00;;;;8333319;28;20244;-72
2022/01/30 06:11:34;;;;;;;6.33;2.23;;;;;6.70;96743.00;;;;8319040;28;20821;-73
2022/01/30 06:15:38;;;;;;;4.43;1.67;;;;;6.60;96733.00;;;;8316276;28;20275;-70
2022/01/30 06:19:41;;;;;;;11.20;3.00;;;;;6.60;96736.00;;;;8310814;28;20703;-71
2022/01/30 06:23:45;;;;;;;8.87;2.40;;;;;6.60;96722.00;;;;8316155;28;20609;-73
2022/01/30 06:27:47;;;;;;;8.97;2.50;;;;;6.60;96709.00;;;;8317917;28;20236;-72
2022/01/30 06:31:53;;;;;;;9.53;2.23;;;;;6.60;96712.00;;;;8315663;28;20233;-74
2022/01/30 06:35:56;;;;;;;14.20;2.37;;;;;6.60;96722.00;;;;8319915;28;20217;-69
2022/01/30 06:39:59;;;;;;;9.23;2.50;;;;;6.50;96717.00;;;;8337272;28;20224;-70
2022/01/30 06:44:02;;;;;;;11.57;2.70;;;;;6.50;96725.00;;;;8322770;28;20686;-70
2022/01/30 06:48:07;;;;;;;11.20;2.57;;;;;6.50;96747.00;;;;8318740;28;20221;-73
2022/01/30 06:52:11;;;;;;;11.83;2.73;;;;;6.50;96768.00;;;;8315635;28;20225;-71
2022/01/30 06:56:14;;;;;;;6.93;3.03;;;;;6.50;96778.00;;;;8313643;28;20328;-71
2022/01/30 07:00:18;;;;;;;8.30;2.37;;;;;6.60;96800.00;;;;8316307;28;20303;-70
2022/01/30 07:04:22;;;;;;;7.20;2.10;;;;;6.60;96805.00;;;;8313872;28;20225;-70
2022/01/30 07:08:26;;;;;;;10.93;2.30;;;;;6.60;96796.00;;;;8311974;28;20228;-70
2022/01/30 07:12:29;;;;;;;5.53;2.33;;;;;6.60;96791.00;;;;8315025;28;20221;-69
2022/01/30 07:16:32;;;;;;;6.93;2.10;;;;;6.50;96809.00;;;;8310366;28;20578;-72
2022/01/30 07:20:38;;;;;;;6.43;1.90;;;;;6.50;96782.00;;;;8321891;28;20724;-72
2022/01/30 07:24:41;;;;;;;11.43;2.50;;;;;6.50;96796.00;;;;8315913;28;20236;-71
2022/01/30 07:28:44;;;;;;;10.87;2.13;;;;;6.50;96799.00;;;;8312643;28;20245;-69
2022/01/30 07:32:47;;;;;;;12.43;2.77;;;;;6.60;96782.00;;;;8317633;28;20287;-72
2022/01/30 07:36:55;;;;;;;9.70;2.17;;;;;6.60;96790.00;;;;8313990;28;20321;-70
2022/01/30 07:40:58;;;;;;;8.83;2.37;;;;;6.60;96801.00;;;;8325203;28;20229;-73
2022/01/30 07:45:04;;;;;;;12.10;2.70;;;;;6.60;96788.00;;;;8323345;28;20236;-69
2022/01/30 07:49:06;;;;;;;7.37;2.30;;;;;6.70;96793.00;;;;8320727;28;20209;-69
2022/01/30 07:53:11;;;;;;;10.33;2.97;;;;;6.70;96795.00;;;;8313853;28;20295;-70
2022/01/30 07:57:14;;;;;;;7.07;2.10;;;;;6.60;96783.00;;;;8322427;28;20304;-71
2022/01/30 08:01:17;;;;;;;11.20;2.47;;;;;6.60;96804.00;;;;8320305;28;20642;-69
2022/01/30 08:05:20;;;;;;;12.63;2.13;;;;;6.60;96791.00;;;;8316322;28;20357;-70
2022/01/30 08:09:25;;;;;;;8.10;2.70;;;;;6.60;96800.00;;;;8320509;28;20283;-70
2022/01/30 08:13:30;;;;;;;13.97;3.03;;;;;6.40;96800.00;;;;8317101;28;21711;-71
2022/01/30 08:17:36;;;;;;;7.00;2.60;;;;;6.20;96822.00;;;;8321656;28;20669;-71
2022/01/30 08:21:39;;;;;;;6.47;3.03;;;;;6.20;96809.00;;;;8319490;28;20978;-71
2022/01/30 08:25:44;;;;;;;6.90;3.10;;;;;6.20;96806.00;;;;8327778;28;20297;-73
2022/01/30 08:29:47;;;;;;;7.90;2.23;;;;;6.20;96791.00;;;;8332157;28;20233;-73
2022/01/30 08:33:50;;;;;;;23.87;3.33;;;;;6.30;96813.00;;;;8331534;28;20914;-71
2022/01/30 08:37:53;;;;;;;5.87;2.40;;;;;6.30;96827.00;;;;8328126;28;20893;-70
2022/01/30 08:41:57;;;;;;;5.10;2.17;;;;;6.30;96826.00;;;;8323500;28;20279;-70
2022/01/30 08:46:00;;;;;;;13.53;3.10;;;;;6.30;96833.00;;;;8329404;28;20241;-70
2022/01/30 08:50:05;;;;;;;12.07;2.70;;;;;6.40;96832.00;;;;8320085;28;20225;-71
2022/01/30 08:54:08;;;;;;;10.40;2.57;;;;;6.40;96834.00;;;;8334707;28;20655;-70
2022/01/30 08:58:13;;;;;;;14.40;2.57;;;;;6.40;96836.00;;;;8327061;28;20298;-72
2022/01/30 09:02:18;;;;;;;10.00;2.50;;;;;6.50;96854.00;;;;8316620;28;20240;-70
2022/01/30 09:06:21;;;;;;;7.20;2.57;;;;;6.60;96875.00;;;;8319602;28;20713;-69
2022/01/30 09:10:24;;;;;;;14.00;2.63;;;;;6.60;96873.00;;;;8319890;28;20226;-71
2022/01/30 09:14:28;;;;;;;8.27;2.57;;;;;6.80;96889.00;;;;8319399;28;20668;-69
2022/01/30 09:18:31;;;;;;;13.57;2.33;;;;;7.00;96906.00;;;;8326086;28;20229;-69
2022/01/30 09:22:34;;;;;;;11.97;2.50;;;;;7.00;96896.00;;;;8316761;28;20271;-70
2022/01/30 09:26:37;;;;;;;6.47;2.83;;;;;7.10;96915.00;;;;8327237;28;20236;-70
2022/01/30 09:30:42;;;;;;;10.50;2.17;;;;;7.20;96924.00;;;;8333056;28;20729;-71
2022/01/30 09:34:45;;;;;;;16.40;3.13;;;;;7.30;96938.00;;;;8330322;28;20243;-70
2022/01/30 09:38:50;;;;;;;18.77;7.40;;;;;7.20;96940.00;;;;8318562;28;20380;-71
2022/01/30 09:42:53;;;;;;;161.47;67.50;;;;;7.30;96946.00;;;;8329589;28;20221;-79
2022/01/30 09:46:57;;;;;;;106.93;33.23;;;;;7.30;96957.00;;;;8327593;28;20264;-83
2022/01/30 09:51:04;;;;;;;37.50;12.70;;;;;7.40;96962.00;;;;8339563;28;20259;-80
2022/01/30 09:55:09;;;;;;;47.53;17.40;;;;;7.40;96959.00;;;;8321026;28;20308;-75
2022/01/30 09:59:12;;;;;;;77.90;31.40;;;;;7.50;96952.00;;;;8308899;28;20233;-77
2022/01/30 10:03:23;;;;;;;557.63;251.07;;;;;7.50;96967.00;;;;8315434;28;20290;-75
2022/01/30 10:07:39;;;;;;;238.33;91.23;;;;;7.50;96959.00;;;;8326810;28;20256;-78
2022/01/30 10:11:48;;;;;;;39.60;15.93;;;;;7.50;96963.00;;;;8330372;28;20220;-82
2022/01/30 10:15:55;;;;;;;10.97;3.87;;;;;7.30;96989.00;;;;8325822;28;21984;-83
2022/01/30 10:20:09;;;;;;;11.60;3.77;;;;;7.30;97010.00;;;;8315836;28;20235;-83
2022/01/30 10:24:21;;;;;;;7.63;2.30;;;;;7.30;97021.00;;;;8314503;28;20229;-80
2022/01/30 10:28:28;;;;;;;12.60;2.87;;;;;7.30;97041.00;;;;8317720;28;20229;-81
2022/01/30 10:32:32;;;;;;;10.67;2.50;;;;;7.20;97020.00;;;;8312970;28;20272;-84
2022/01/30 10:36:37;;;;;;;27.00;10.00;;;;;7.20;97019.00;;;;8318665;28;20745;-79
2022/01/30 10:40:56;;;;;;;13.60;4.13;;;;;7.20;97018.00;;;;8328289;28;21505;-80
2022/01/30 10:45:00;;;;;;;8.53;2.83;;;;;7.20;97015.00;;;;8320835;28;20236;-83
2022/01/30 10:49:07;;;;;;;9.73;2.80;;;;;7.20;97008.00;;;;8341487;28;20255;-85
2022/01/30 10:53:20;;;;;;;12.33;4.53;;;;;7.30;96993.00;;;;8324950;28;20233;-83
2022/01/30 10:57:23;;;;;;;8.63;3.00;;;;;7.30;97003.00;;;;8320733;28;20706;-81
2022/01/30 11:01:26;;;;;;;10.73;3.53;;;;;7.30;96987.00;;;;8320023;28;20245;-83
2022/01/30 11:05:29;;;;;;;16.03;3.83;;;;;7.40;97000.00;;;;8324480;28;20247;-84
2022/01/30 11:09:38;;;;;;;8.80;2.27;;;;;7.50;96977.00;;;;8330407;28;20753;-84
2022/01/30 11:13:59;;;;;;;10.23;3.33;;;;;7.60;96968.00;;;;8309791;28;20229;-84
2022/01/30 11:18:03;;;;;;;8.47;2.30;;;;;7.60;96951.00;;;;8320043;28;20220;-80
2022/01/30 11:22:08;;;;;;;10.20;2.77;;;;;7.60;96972.00;;;;8331619;28;20228;-79
2022/01/30 11:26:15;;;;;;;4.03;1.70;;;;;7.70;96962.00;;;;8322281;28;20244;-80
2022/01/30 11:30:20;;;;;;;10.80;2.17;;;;;7.70;96983.00;;;;8320711;28;20220;-81
2022/01/30 11:34:24;;;;;;;13.03;2.93;;;;;7.80;96992.00;;;;8322638;28;20245;-82
2022/01/30 11:38:27;;;;;;;5.00;1.70;;;;;7.70;96991.00;;;;8330954;28;20286;-82
2022/01/30 11:42:41;;;;;;;9.87;2.93;;;;;7.70;96989.00;;;;8332623;28;20232;-84
2022/01/30 11:46:44;;;;;;;7.13;1.87;;;;;7.70;96990.00;;;;8328737;28;20229;-79
2022/01/30 11:50:47;;;;;;;10.50;2.37;;;;;7.60;96986.00;;;;8332616;28;20229;-77
2022/01/30 11:54:54;;;;;;;4.63;2.13;;;;;7.60;96979.00;;;;8330027;28;20224;-81
2022/01/30 11:58:59;;;;;;;3.20;1.90;;;;;7.60;96979.00;;;;8312866;28;20237;-77
2022/01/30 12:03:24;;;;;;;11.87;1.97;;;;;7.50;96976.00;;;;8315828;28;20237;-82
2022/01/30 12:07:37;;;;;;;12.43;2.77;;;;;7.60;96969.00;;;;8324732;28;20225;-80
2022/01/30 12:12:08;;;;;;;10.07;2.40;;;;;7.50;96967.00;;;;8317898;28;20247;-77
2022/01/30 12:16:41;;;;;;;5.80;2.23;;;;;7.50;96960.00;;;;8320450;28;20300;-83
2022/01/30 12:21:01;;;;;;;10.20;2.47;;;;;7.50;96972.00;;;;8319823;28;20741;-76
2022/01/30 12:25:30;;;;;;;7.77;2.43;;;;;7.50;96961.00;;;;8320712;28;20235;-78
2022/01/30 12:29:37;;;;;;;14.57;3.00;;;;;7.60;96969.00;;;;8319550;28;20275;-79
2022/01/30 12:33:43;;;;;;;12.07;2.37;;;;;7.50;96978.00;;;;8325418;28;20266;-77
2022/01/30 12:37:48;;;;;;;7.30;2.33;;;;;7.60;96961.00;;;;8326782;28;20339;-78
2022/01/30 12:41:52;;;;;;;11.30;2.20;;;;;7.60;96978.00;;;;8331910;28;20236;-79
2022/01/30 12:46:05;;;;;;;9.67;2.17;;;;;7.70;96953.00;;;;8320912;28;20237;-77
2022/01/30 12:50:09;;;;;;;10.73;2.40;;;;;7.80;96965.00;;;;8330448;28;20230;-80
2022/01/30 12:54:16;;;;;;;5.23;1.90;;;;;7.90;96979.00;;;;8321139;28;20229;-83
2022/01/30 12:58:20;;;;;;;18.23;2.50;;;;;7.80;96957.00;;;;8330131;28;20667;-78
2022/01/30 13:02:24;;;;;;;5.97;2.53;;;;;7.80;96956.00;;;;8323135;28;20299;-80
2022/01/30 13:06:33;;;;;;;5.90;2.40;;;;;7.80;96958.00;;;;8324436;28;20248;-79
2022/01/30 13:10:37;;;;;;;11.97;2.93;;;;;7.80;96961.00;;;;8323546;28;20608;-78
2022/01/30 13:14:41;;;;;;;10.13;2.30;;;;;7.80;96971.00;;;;8323415;28;20268;-79
2022/01/30 13:18:44;;;;;;;7.83;2.17;;;;;7.80;96974.00;;;;8324507;28;20239;-81
2022/01/30 13:22:50;;;;;;;11.67;2.10;;;;;7.70;96959.00;;;;8326887;28;20217;-75
2022/01/30 13:26:58;;;;;;;24.63;3.57;;;;;7.70;96955.00;;;;8324652;28;20819;-81
2022/01/30 13:31:12;;;;;;;10.23;2.57;;;;;7.60;96956.00;;;;8326930;28;20240;-80
2022/01/30 13:35:17;;;;;;;5.20;1.97;;;;;7.50;96978.00;;;;8324267;28;20239;-79
2022/01/30 13:39:27;;;;;;;12.90;2.60;;;;;7.40;96989.00;;;;8325578;28;20221;-76
2022/01/30 13:43:36;;;;;;;18.00;3.10;;;;;7.30;96972.00;;;;8324588;28;20241;-77
2022/01/30 13:47:39;;;;;;;15.13;3.37;;;;;7.30;96982.00;;;;8325941;28;20244;-78
2022/01/30 13:51:42;;;;;;;7.23;2.17;;;;;7.40;96941.00;;;;8324376;28;20229;-80
2022/01/30 13:55:57;;;;;;;10.43;2.30;;;;;7.40;96973.00;;;;8315043;28;20795;-80
2022/01/30 14:00:11;;;;;;;12.73;2.43;;;;;7.30;96988.00;;;;8319117;28;20387;-79
2022/01/30 14:04:15;;;;;;;9.67;2.40;;;;;7.30;96971.00;;;;8336940;28;20236;-83
2022/01/30 14:08:19;;;;;;;10.23;2.30;;;;;7.30;96996.00;;;;8321546;28;20232;-81
2022/01/30 14:12:28;;;;;;;9.00;2.13;;;;;7.30;96999.00;;;;8330148;28;20597;-79
2022/01/30 14:16:37;;;;;;;10.77;2.37;;;;;7.10;96986.00;;;;8322523;28;20233;-82
2022/01/30 14:20:43;;;;;;;12.43;2.37;;;;;7.00;96991.00;;;;8325130;28;20233;-82
2022/01/30 14:24:51;;;;;;;7.90;2.33;;;;;7.00;96983.00;;;;8322770;28;20225;-82
2022/01/30 14:29:09;;;;;;;14.67;3.07;;;;;7.00;96977.00;;;;8327106;28;20625;-81
2022/01/30 14:33:17;;;;;;;10.93;2.67;;;;;7.00;96984.00;;;;8312528;28;20229;-82
2022/01/30 14:37:21;;;;;;;10.17;2.83;;;;;7.10;96981.00;;;;8318370;28;20311;-84
2022/01/30 14:41:27;;;;;;;20.67;3.20;;;;;7.10;96983.00;;;;8337064;28;20244;-79
2022/01/30 14:45:31;;;;;;;11.20;3.03;;;;;7.10;96999.00;;;;8315513;28;20670;-80
2022/01/30 14:49:35;;;;;;;10.13;2.33;;;;;7.10;97013.00;;;;8316541;28;20255;-80
2022/01/30 14:53:38;;;;;;;11.33;3.27;;;;;7.10;96996.00;;;;8332037;28;20219;-78
2022/01/30 14:57:42;;;;;;;10.03;2.37;;;;;7.10;96997.00;;;;8335757;28;20228;-79
2022/01/30 15:01:45;;;;;;;13.40;3.60;;;;;7.10;97019.00;;;;8341136;28;20715;-82
2022/01/30 15:05:49;;;;;;;10.40;2.67;;;;;7.00;97029.00;;;;8337343;28;20225;-84
2022/01/30 15:09:52;;;;;;;12.83;3.37;;;;;6.90;97013.00;;;;8334628;28;20255;-81
2022/01/30 15:13:55;;;;;;;13.30;2.50;;;;;6.90;97025.00;;;;8333447;28;20271;-81
2022/01/30 15:18:05;;;;;;;9.17;2.20;;;;;6.90;97017.00;;;;8324869;28;20227;-81
2022/01/30 15:22:09;;;;;;;7.07;2.57;;;;;6.80;97010.00;;;;8341052;28;20220;-77
2022/01/30 15:26:12;;;;;;;6.33;2.30;;;;;6.70;97003.00;;;;8329007;28;20229;-82
2022/01/30 15:30:15;;;;;;;11.40;3.07;;;;;6.70;97000.00;;;;8330296;28;20225;-81
2022/01/30 15:34:18;;;;;;;15.47;2.80;;;;;6.60;96991.00;;;;8324596;28;20266;-80
2022/01/30 15:38:23;;;;;;;20.90;3.20;;;;;6.50;96996.00;;;;8318375;28;20225;-80
2022/01/30 15:42:26;;;;;;;21.07;8.63;;;;;6.40;97000.00;;;;8321080;28;20221;-78
2022/01/30 15:50:50;;;;;;;16.70;6.03;;;;;6.20;97003.00;;;;8315639;28;20244;-80
2022/01/30 15:54:56;;;;;;;12.10;3.67;;;;;6.20;97006.00;;;;8315169;28;20235;-80
2022/01/30 15:59:00;;;;;;;17.60;11.10;;;;;6.20;97008.00;;;;8316916;28;20229;-78
2022/01/30 16:03:03;;;;;;;10.77;3.53;;;;;6.20;96997.00;;;;8328147;28;20282;-77
2022/01/30 16:07:06;;;;;;;11.47;4.30;;;;;6.20;97004.00;;;;8330806;28;20266;-79
2022/01/30 16:11:36;;;;;;;10.73;3.10;;;;;6.10;97003.00;;;;8333713;28;20232;-77
2022/01/30 16:15:38;;;;;;;10.17;2.80;;;;;6.10;97000.00;;;;8330465;28;20232;-76
2022/01/30 16:19:41;;;;;;;12.27;3.30;;;;;6.00;97021.00;;;;8326834;28;20236;-78
2022/01/30 16:23:44;;;;;;;10.07;2.67;;;;;6.00;97014.00;;;;8329774;28;20228;-80
2022/01/30 16:27:49;;;;;;;8.77;2.77;;;;;6.00;97010.00;;;;8326261;28;20236;-79
2022/01/30 16:31:52;;;;;;;19.00;2.90;;;;;6.00;97013.00;;;;8348067;28;20221;-80
2022/01/30 16:35:55;;;;;;;6.90;2.37;;;;;5.90;97014.00;;;;8332740;28;20264;-79
2022/01/30 16:39:58;;;;;;;12.77;3.47;;;;;5.90;97002.00;;;;8347112;28;20225;-79
2022/01/30 16:44:12;;;;;;;15.03;3.70;;;;;5.90;97009.00;;;;8326394;28;20998;-78
2022/01/30 16:48:18;;;;;;;8.47;2.77;;;;;5.90;97029.00;;;;8332923;28;20252;-79
2022/01/30 16:52:21;;;;;;;11.30;2.37;;;;;5.80;97024.00;;;;8329779;28;20322;-78
2022/01/30 16:56:26;;;;;;;14.47;2.70;;;;;5.80;97027.00;;;;8321270;28;20228;-84
2022/01/30 17:00:30;;;;;;;16.37;3.37;;;;;5.80;97020.00;;;;8337668;28;20232;-79
2022/01/30 17:04:33;;;;;;;10.20;3.10;;;;;5.80;97022.00;;;;8320953;28;20255;-79
2022/01/30 17:08:38;;;;;;;19.17;3.13;;;;;5.70;97025.00;;;;8331777;28;20295;-84
2022/01/30 17:17:05;;;;;;;18.90;3.20;;;;;5.70;97027.00;;;;8323319;28;20626;-84
2022/01/30 17:21:08;;;;;;;9.67;2.33;;;;;5.60;97020.00;;;;8327043;28;20225;-83
2022/01/30 17:25:11;;;;;;;11.27;3.20;;;;;5.60;97030.00;;;;8324243;28;20229;-87
2022/01/30 17:29:15;;;;;;;17.60;3.67;;;;;5.50;97040.00;;;;8327115;28;20283;-84
2022/01/30 17:33:19;;;;;;;12.03;2.50;;;;;5.50;97024.00;;;;8328951;28;20221;-80
2022/01/30 17:37:24;;;;;;;17.57;3.40;;;;;5.50;97020.00;;;;8325860;28;20237;-81
2022/01/30 17:41:30;;;;;;;12.57;3.27;;;;;5.50;97019.00;;;;8330480;28;20240;-86
2022/01/30 17:45:33;;;;;;;13.03;2.30;;;;;5.50;97026.00;;;;8332555;28;20290;-78
2022/01/30 17:49:37;;;;;;;16.97;4.73;;;;;5.50;97025.00;;;;8335530;28;20236;-85
2022/01/30 17:53:40;;;;;;;12.87;3.03;;;;;5.50;97030.00;;;;8328316;28;20483;-84
2022/01/30 17:57:44;;;;;;;21.80;3.10;;;;;5.40;97017.00;;;;8330189;28;20291;-84
2022/01/30 18:01:48;;;;;;;14.97;3.03;;;;;5.30;97018.00;;;;8333649;28;20294;-88
2022/01/30 18:05:53;;;;;;;18.43;3.60;;;;;5.30;97021.00;;;;8343243;28;20233;-79
2022/01/30 18:09:56;;;;;;;12.93;3.30;;;;;5.30;97020.00;;;;8333399;28;20278;-83
2022/01/30 18:14:00;;;;;;;23.77;7.23;;;;;5.20;97025.00;;;;8329778;28;20333;-80
2022/01/30 18:18:03;;;;;;;35.63;14.20;;;;;5.30;97033.00;;;;8323526;28;20692;-83
2022/01/30 18:22:08;;;;;;;21.57;3.73;;;;;5.20;97029.00;;;;8324461;28;20439;-82
2022/01/30 18:26:11;;;;;;;17.53;3.83;;;;;5.20;97014.00;;;;8350674;28;20531;-83
2022/01/30 18:30:14;;;;;;;20.37;5.07;;;;;5.20;97016.00;;;;8701811;22;20948;-83
2022/01/30 18:34:17;;;;;;;26.10;3.73;;;;;5.20;97020.00;;;;8752916;22;20208;-78
2022/01/30 18:38:38;;;;;;;9.97;2.70;;;;;5.20;96998.00;;;;8591861;22;20236;-78
2022/01/30 18:42:43;;;;;;;9.47;2.50;;;;;5.20;97002.00;;;;9008917;22;20347;-82
2022/01/30 18:46:46;;;;;;;15.03;3.50;;;;;5.20;96990.00;;;;9124064;22;20232;-78
2022/01/30 18:50:49;;;;;;;15.57;3.50;;;;;5.20;96990.00;;;;9148843;22;20237;-85
2022/01/30 18:54:54;;;;;;;20.00;3.10;;;;;5.20;96976.00;;;;8568005;22;20298;-85
2022/01/30 18:58:57;;;;;;;14.63;3.37;;;;;5.10;96979.00;;;;8391491;28;20607;-84
2022/01/30 19:03:01;;;;;;;14.23;3.90;;;;;5.00;96983.00;;;;8390162;28;20238;-76
2022/01/30 19:07:04;;;;;;;19.00;3.60;;;;;5.00;96974.00;;;;8383126;28;20312;-84
2022/01/30 19:11:08;;;;;;;14.17;4.27;;;;;5.00;96972.00;;;;8381944;28;20285;-80
2022/01/30 19:15:11;;;;;;;11.57;3.80;;;;;5.00;96976.00;;;;8395623;28;20231;-85
2022/01/30 19:19:14;;;;;;;18.03;3.07;;;;;5.00;96972.00;;;;8371728;28;20231;-83
2022/01/30 19:23:17;;;;;;;13.10;4.70;;;;;4.90;96963.00;;;;8371962;22;20236;-84
2022/01/30 19:27:23;;;;;;;19.50;3.33;;;;;5.00;96949.00;;;;8692939;22;20834;-86
2022/01/30 19:31:26;;;;;;;20.37;2.73;;;;;4.90;96948.00;;;;8371804;28;20220;-81
2022/01/30 19:35:29;;;;;;;18.83;3.47;;;;;4.80;96942.00;;;;8385379;28;20301;-83
2022/01/30 19:39:32;;;;;;;19.13;3.53;;;;;4.70;96943.00;;;;8386556;22;20249;-82
2022/01/30 19:43:36;;;;;;;10.97;2.93;;;;;4.70;96940.00;;;;8580156;22;20684;-83
2022/01/30 19:47:46;;;;;;;19.73;3.43;;;;;4.70;96937.00;;;;8384027;28;20723;-84
2022/01/30 19:51:51;;;;;;;17.77;4.00;;;;;4.70;96929.00;;;;8429792;28;20222;-83
2022/01/30 19:55:53;;;;;;;12.43;3.20;;;;;4.60;96916.00;;;;8417881;28;20230;-85
2022/01/30 19:59:58;;;;;;;20.03;3.73;;;;;4.50;96913.00;;;;8443105;28;20287;-79
2022/01/30 20:04:01;;;;;;;20.10;2.93;;;;;4.60;96924.00;;;;8413967;28;20257;-80
2022/01/30 20:08:04;;;;;;;21.30;3.57;;;;;4.60;96915.00;;;;8629374;22;20750;-84
2022/01/30 20:12:08;;;;;;;15.10;3.37;;;;;4.60;96913.00;;;;8433455;28;20235;-81
2022/01/30 20:16:12;;;;;;;17.20;3.43;;;;;4.70;96910.00;;;;8422827;28;20293;-82
2022/01/30 20:20:16;;;;;;;17.53;3.47;;;;;4.70;96904.00;;;;8502727;22;20223;-83
2022/01/30 20:24:20;;;;;;;16.37;2.97;;;;;4.70;96892.00;;;;8421198;28;20235;-86
2022/01/30 20:28:23;;;;;;;25.37;4.80;;;;;4.80;96900.00;;;;8431631;28;21091;-82
2022/01/30 20:32:27;;;;;;;18.17;2.90;;;;;4.80;96900.00;;;;8641137;22;20638;-83
2022/01/30 20:36:31;;;;;;;13.97;3.60;;;;;4.80;96902.00;;;;9057483;22;20204;-81
2022/01/30 20:40:34;;;;;;;18.03;4.07;;;;;4.80;96889.00;;;;9772698;22;20238;-82
2022/01/30 20:44:37;;;;;;;16.20;4.00;;;;;4.80;96890.00;;;;8697756;22;20317;-85
2022/01/30 20:48:42;;;;;;;14.37;3.43;;;;;4.80;96881.00;;;;8419106;28;20242;-83
2022/01/30 20:52:45;;;;;;;21.63;3.53;;;;;4.90;96874.00;;;;8430082;28;20238;-86
2022/01/30 20:56:48;;;;;;;18.97;3.90;;;;;4.90;96873.00;;;;8415738;28;20286;-86
2022/01/30 21:00:51;;;;;;;13.27;3.10;;;;;4.90;96870.00;;;;8406749;28;20929;-88
2022/01/30 21:04:56;;;;;;;16.07;3.23;;;;;4.90;96870.00;;;;8420850;28;20345;-85
2022/01/30 21:09:04;;;;;;;15.63;3.37;;;;;4.90;96861.00;;;;8432105;28;20233;-76